sensor_id;sensor_type;location;lat;lon;timestamp;P1;durP1;ratioP1;P2;durP2;ratioP2
11767;SDS011;5941;57.652;12.514;2023-08-31T00:01:35;946.30;;;880.70;;
11767;SDS011;5941;57.652;12.514;2023-08-31T00:04:01;751.90;;;693.30;;
11767;SDS011;5941;57.652;12.514;2023-08-31T00:06:27;855.90;;;794.67;;
11767;SDS011;5941;57.652;12.514;2023-08-31T00:08:53;864.10;;;800.93;;
11767;SDS011;5941;57.652;12.514;2023-08-31T00:11:19;908.47;;;845.43;;
11767;SDS011;5941;57.652;12.514;2023-08-31T00:13:46;928.40;;;866.40;;
11767;SDS011;5941;57.652;12.514;2023-08-31T00:16:12;945.17;;;881.03;;
11767;SDS011;5941;57.652;12.514;2023-08-31T00:18:38;910.73;;;852.60;;
11767;SDS011;5941;57.652;12.514;2023-08-31T00:21:04;1634.93;;;946.17;;
11767;SDS011;5941;57.652;12.514;2023-08-31T00:23:30;1133.17;;;763.10;;
11767;SDS011;5941;57.652;12.514;2023-08-31T00:25:56;1573.63;;;887.93;;
11767;SDS011;5941;57.652;12.514;2023-08-31T00:28:22;793.10;;;734.07;;
11767;SDS011;5941;57.652;12.514;2023-08-31T00:30:50;949.23;;;884.90;;
11767;SDS011;5941;57.652;12.514;2023-08-31T00:33:16;949.47;;;883.83;;
11767;SDS011;5941;57.652;12.514;2023-08-31T00:35:42;927.87;;;865.97;;
11767;SDS011;5941;57.652;12.514;2023-08-31T00:38:12;924.20;;;863.90;;
11767;SDS011;5941;57.652;12.514;2023-08-31T00:40:42;955.53;;;890.33;;
11767;SDS011;5941;57.652;12.514;2023-08-31T00:43:09;921.30;;;861.00;;
11767;SDS011;5941;57.652;12.514;2023-08-31T00:45:35;932.70;;;871.03;;
11767;SDS011;5941;57.652;12.514;2023-08-31T00:48:02;902.57;;;843.70;;
11767;SDS011;5941;57.652;12.514;2023-08-31T00:50:28;901.10;;;843.90;;
11767;SDS011;5941;57.652;12.514;2023-08-31T00:52:54;919.37;;;860.60;;
11767;SDS011;5941;57.652;12.514;2023-08-31T00:55:21;909.50;;;851.07;;
11767;SDS011;5941;57.652;12.514;2023-08-31T00:57:47;920.50;;;861.17;;
11767;SDS011;5941;57.652;12.514;2023-08-31T01:00:13;920.67;;;860.23;;
11767;SDS011;5941;57.652;12.514;2023-08-31T01:02:59;928.83;;;868.03;;
11767;SDS011;5941;57.652;12.514;2023-08-31T01:05:38;1653.27;;;963.90;;
11767;SDS011;5941;57.652;12.514;2023-08-31T01:13:05;905.50;;;847.00;;
11767;SDS011;5941;57.652;12.514;2023-08-31T01:15:36;930.13;;;870.53;;
11767;SDS011;5941;57.652;12.514;2023-08-31T01:18:03;945.33;;;881.70;;
11767;SDS011;5941;57.652;12.514;2023-08-31T01:23:18;943.73;;;879.60;;
11767;SDS011;5941;57.652;12.514;2023-08-31T01:25:44;939.43;;;876.73;;
11767;SDS011;5941;57.652;12.514;2023-08-31T01:28:11;907.47;;;849.03;;
11767;SDS011;5941;57.652;12.514;2023-08-31T01:30:37;921.33;;;861.33;;
11767;SDS011;5941;57.652;12.514;2023-08-31T01:33:03;948.50;;;883.97;;
11767;SDS011;5941;57.652;12.514;2023-08-31T01:35:30;958.77;;;894.57;;
11767;SDS011;5941;57.652;12.514;2023-08-31T01:38:00;937.20;;;875.27;;
11767;SDS011;5941;57.652;12.514;2023-08-31T01:40:31;1303.13;;;926.93;;
11767;SDS011;5941;57.652;12.514;2023-08-31T01:43:01;935.37;;;874.10;;
11767;SDS011;5941;57.652;12.514;2023-08-31T01:45:28;919.30;;;859.47;;
11767;SDS011;5941;57.652;12.514;2023-08-31T01:47:54;928.43;;;867.77;;
11767;SDS011;5941;57.652;12.514;2023-08-31T01:50:21;949.70;;;886.80;;
11767;SDS011;5941;57.652;12.514;2023-08-31T01:52:47;918.93;;;859.67;;
11767;SDS011;5941;57.652;12.514;2023-08-31T01:55:13;928.40;;;868.87;;
11767;SDS011;5941;57.652;12.514;2023-08-31T01:57:40;920.70;;;861.07;;
11767;SDS011;5941;57.652;12.514;2023-08-31T02:00:08;933.30;;;872.10;;
11767;SDS011;5941;57.652;12.514;2023-08-31T02:02:34;925.10;;;865.43;;
11767;SDS011;5941;57.652;12.514;2023-08-31T02:05:01;928.63;;;868.03;;
11767;SDS011;5941;57.652;12.514;2023-08-31T02:07:28;943.83;;;880.87;;
11767;SDS011;5941;57.652;12.514;2023-08-31T02:09:54;938.20;;;875.23;;
11767;SDS011;5941;57.652;12.514;2023-08-31T02:12:20;946.10;;;882.67;;
11767;SDS011;5941;57.652;12.514;2023-08-31T02:14:46;937.60;;;875.90;;
11767;SDS011;5941;57.652;12.514;2023-08-31T02:17:12;927.33;;;865.67;;
11767;SDS011;5941;57.652;12.514;2023-08-31T02:19:38;938.23;;;875.67;;
11767;SDS011;5941;57.652;12.514;2023-08-31T02:22:04;930.47;;;870.27;;
11767;SDS011;5941;57.652;12.514;2023-08-31T02:24:30;940.90;;;878.03;;
11767;SDS011;5941;57.652;12.514;2023-08-31T02:26:56;943.20;;;881.37;;
11767;SDS011;5941;57.652;12.514;2023-08-31T02:29:22;931.80;;;869.93;;
11767;SDS011;5941;57.652;12.514;2023-08-31T02:31:48;954.07;;;889.10;;
11767;SDS011;5941;57.652;12.514;2023-08-31T02:34:14;934.83;;;872.67;;
11767;SDS011;5941;57.652;12.514;2023-08-31T02:36:40;1999.90;;;999.90;;
11767;SDS011;5941;57.652;12.514;2023-08-31T02:39:06;946.80;;;882.93;;
11767;SDS011;5941;57.652;12.514;2023-08-31T02:41:32;945.97;;;881.07;;
11767;SDS011;5941;57.652;12.514;2023-08-31T02:43:58;1999.90;;;999.90;;
11767;SDS011;5941;57.652;12.514;2023-08-31T02:46:24;1999.90;;;999.90;;
11767;SDS011;5941;57.652;12.514;2023-08-31T02:48:50;1627.13;;;940.30;;
11767;SDS011;5941;57.652;12.514;2023-08-31T02:51:16;927.07;;;863.73;;
11767;SDS011;5941;57.652;12.514;2023-08-31T02:53:42;912.67;;;850.83;;
11767;SDS011;5941;57.652;12.514;2023-08-31T02:56:08;936.10;;;873.60;;
11767;SDS011;5941;57.652;12.514;2023-08-31T02:58:34;936.37;;;873.33;;
11767;SDS011;5941;57.652;12.514;2023-08-31T03:01:06;941.27;;;878.17;;
11767;SDS011;5941;57.652;12.514;2023-08-31T03:03:33;941.63;;;878.33;;
11767;SDS011;5941;57.652;12.514;2023-08-31T03:06:00;964.47;;;899.27;;
11767;SDS011;5941;57.652;12.514;2023-08-31T03:08:26;939.33;;;876.57;;
11767;SDS011;5941;57.652;12.514;2023-08-31T03:10:52;950.07;;;885.67;;
11767;SDS011;5941;57.652;12.514;2023-08-31T03:13:18;966.60;;;899.77;;
11767;SDS011;5941;57.652;12.514;2023-08-31T03:15:44;944.57;;;878.90;;
11767;SDS011;5941;57.652;12.514;2023-08-31T03:18:10;1999.90;;;999.90;;
11767;SDS011;5941;57.652;12.514;2023-08-31T03:20:36;1999.90;;;999.90;;
11767;SDS011;5941;57.652;12.514;2023-08-31T03:23:02;1999.90;;;999.90;;
11767;SDS011;5941;57.652;12.514;2023-08-31T03:25:28;1579.53;;;894.97;;
11767;SDS011;5941;57.652;12.514;2023-08-31T03:27:54;784.70;;;728.30;;
11767;SDS011;5941;57.652;12.514;2023-08-31T03:30:20;1999.90;;;999.90;;
11767;SDS011;5941;57.652;12.514;2023-08-31T03:32:46;848.83;;;790.13;;
11767;SDS011;5941;57.652;12.514;2023-08-31T03:35:12;951.17;;;884.43;;
11767;SDS011;5941;57.652;12.514;2023-08-31T03:37:38;955.23;;;888.93;;
11767;SDS011;5941;57.652;12.514;2023-08-31T03:40:04;951.73;;;885.40;;
11767;SDS011;5941;57.652;12.514;2023-08-31T03:42:31;1146.80;;;777.97;;
11767;SDS011;5941;57.652;12.514;2023-08-31T03:44:58;1999.90;;;999.90;;
11767;SDS011;5941;57.652;12.514;2023-08-31T03:47:24;1999.90;;;999.90;;
11767;SDS011;5941;57.652;12.514;2023-08-31T03:49:50;1999.90;;;999.90;;
11767;SDS011;5941;57.652;12.514;2023-08-31T03:52:16;1999.90;;;999.90;;
11767;SDS011;5941;57.652;12.514;2023-08-31T03:54:42;1198.00;;;826.83;;
11767;SDS011;5941;57.652;12.514;2023-08-31T03:57:08;1999.90;;;999.90;;
11767;SDS011;5941;57.652;12.514;2023-08-31T03:59:34;1999.90;;;999.90;;
11767;SDS011;5941;57.652;12.514;2023-08-31T04:02:00;1541.30;;;858.90;;
11767;SDS011;5941;57.652;12.514;2023-08-31T04:04:26;947.37;;;883.17;;
11767;SDS011;5941;57.652;12.514;2023-08-31T04:06:52;1999.90;;;999.90;;
11767;SDS011;5941;57.652;12.514;2023-08-31T04:09:18;1999.90;;;999.90;;
11767;SDS011;5941;57.652;12.514;2023-08-31T04:11:44;1999.90;;;999.90;;
11767;SDS011;5941;57.652;12.514;2023-08-31T04:14:10;1645.57;;;957.03;;
11767;SDS011;5941;57.652;12.514;2023-08-31T04:16:36;1303.73;;;926.70;;
11767;SDS011;5941;57.652;12.514;2023-08-31T04:19:02;1999.90;;;999.90;;
11767;SDS011;5941;57.652;12.514;2023-08-31T04:21:28;1999.90;;;999.90;;
11767;SDS011;5941;57.652;12.514;2023-08-31T04:23:55;1999.90;;;999.90;;
11767;SDS011;5941;57.652;12.514;2023-08-31T04:26:21;1999.90;;;999.90;;
11767;SDS011;5941;57.652;12.514;2023-08-31T04:28:48;1999.90;;;999.90;;
11767;SDS011;5941;57.652;12.514;2023-08-31T04:31:14;1999.90;;;999.90;;
11767;SDS011;5941;57.652;12.514;2023-08-31T04:33:40;1999.90;;;999.90;;
11767;SDS011;5941;57.652;12.514;2023-08-31T04:36:06;1999.90;;;999.90;;
11767;SDS011;5941;57.652;12.514;2023-08-31T04:38:34;1999.90;;;999.90;;
11767;SDS011;5941;57.652;12.514;2023-08-31T04:41:00;1999.90;;;999.90;;
11767;SDS011;5941;57.652;12.514;2023-08-31T04:43:27;1999.90;;;999.90;;
11767;SDS011;5941;57.652;12.514;2023-08-31T04:45:53;1999.90;;;999.90;;
11767;SDS011;5941;57.652;12.514;2023-08-31T04:48:19;1999.90;;;999.90;;
11767;SDS011;5941;57.652;12.514;2023-08-31T04:50:45;1999.90;;;999.90;;
11767;SDS011;5941;57.652;12.514;2023-08-31T04:53:11;837.30;;;778.90;;
11767;SDS011;5941;57.652;12.514;2023-08-31T04:55:37;1999.90;;;999.90;;
11767;SDS011;5941;57.652;12.514;2023-08-31T04:58:04;1999.90;;;999.90;;
11767;SDS011;5941;57.652;12.514;2023-08-31T05:00:30;1999.90;;;999.90;;
11767;SDS011;5941;57.652;12.514;2023-08-31T05:02:56;1999.90;;;999.90;;
11767;SDS011;5941;57.652;12.514;2023-08-31T05:05:22;1999.90;;;999.90;;
11767;SDS011;5941;57.652;12.514;2023-08-31T05:07:48;1999.90;;;999.90;;
11767;SDS011;5941;57.652;12.514;2023-08-31T05:10:14;1999.90;;;999.90;;
11767;SDS011;5941;57.652;12.514;2023-08-31T05:12:41;1999.90;;;999.90;;
11767;SDS011;5941;57.652;12.514;2023-08-31T05:15:08;1999.90;;;999.90;;
11767;SDS011;5941;57.652;12.514;2023-08-31T05:17:34;1999.90;;;999.90;;
11767;SDS011;5941;57.652;12.514;2023-08-31T05:20:00;1999.90;;;999.90;;
11767;SDS011;5941;57.652;12.514;2023-08-31T05:22:28;1999.90;;;999.90;;
11767;SDS011;5941;57.652;12.514;2023-08-31T05:24:54;1999.90;;;999.90;;
11767;SDS011;5941;57.652;12.514;2023-08-31T05:27:21;1999.90;;;999.90;;
11767;SDS011;5941;57.652;12.514;2023-08-31T05:29:47;1999.90;;;999.90;;
11767;SDS011;5941;57.652;12.514;2023-08-31T05:32:13;1999.90;;;999.90;;
11767;SDS011;5941;57.652;12.514;2023-08-31T05:34:38;1999.90;;;999.90;;
11767;SDS011;5941;57.652;12.514;2023-08-31T05:37:05;1999.90;;;999.90;;
11767;SDS011;5941;57.652;12.514;2023-08-31T05:39:31;1999.90;;;999.90;;
11767;SDS011;5941;57.652;12.514;2023-08-31T05:41:57;1999.90;;;999.90;;
11767;SDS011;5941;57.652;12.514;2023-08-31T05:44:23;1999.90;;;999.90;;
11767;SDS011;5941;57.652;12.514;2023-08-31T05:46:49;1999.90;;;999.90;;
11767;SDS011;5941;57.652;12.514;2023-08-31T05:49:15;1999.90;;;999.90;;
11767;SDS011;5941;57.652;12.514;2023-08-31T05:51:41;1999.90;;;999.90;;
11767;SDS011;5941;57.652;12.514;2023-08-31T05:54:07;1999.90;;;999.90;;
11767;SDS011;5941;57.652;12.514;2023-08-31T05:56:38;1999.90;;;999.90;;
11767;SDS011;5941;57.652;12.514;2023-08-31T05:59:05;1999.90;;;999.90;;
11767;SDS011;5941;57.652;12.514;2023-08-31T06:01:31;1999.90;;;999.90;;
11767;SDS011;5941;57.652;12.514;2023-08-31T06:03:57;1999.90;;;999.90;;
11767;SDS011;5941;57.652;12.514;2023-08-31T06:06:23;1999.90;;;999.90;;
11767;SDS011;5941;57.652;12.514;2023-08-31T06:08:49;1999.90;;;999.90;;
11767;SDS011;5941;57.652;12.514;2023-08-31T06:11:15;1999.90;;;999.90;;
11767;SDS011;5941;57.652;12.514;2023-08-31T06:13:41;1999.90;;;999.90;;
11767;SDS011;5941;57.652;12.514;2023-08-31T06:16:07;1999.90;;;999.90;;
11767;SDS011;5941;57.652;12.514;2023-08-31T06:18:33;1999.90;;;999.90;;
11767;SDS011;5941;57.652;12.514;2023-08-31T06:20:59;1999.90;;;999.90;;
11767;SDS011;5941;57.652;12.514;2023-08-31T06:23:25;1999.90;;;999.90;;
11767;SDS011;5941;57.652;12.514;2023-08-31T06:25:51;1999.90;;;999.90;;
11767;SDS011;5941;57.652;12.514;2023-08-31T06:28:17;1999.90;;;999.90;;
11767;SDS011;5941;57.652;12.514;2023-08-31T06:30:43;1999.90;;;999.90;;
11767;SDS011;5941;57.652;12.514;2023-08-31T06:33:13;1999.90;;;999.90;;
11767;SDS011;5941;57.652;12.514;2023-08-31T06:35:39;1999.90;;;999.90;;
11767;SDS011;5941;57.652;12.514;2023-08-31T06:38:05;1999.90;;;999.90;;
11767;SDS011;5941;57.652;12.514;2023-08-31T06:40:31;1999.90;;;999.90;;
11767;SDS011;5941;57.652;12.514;2023-08-31T06:42:58;1999.90;;;999.90;;
11767;SDS011;5941;57.652;12.514;2023-08-31T06:45:24;1999.90;;;999.90;;
11767;SDS011;5941;57.652;12.514;2023-08-31T06:47:50;1999.90;;;999.90;;
11767;SDS011;5941;57.652;12.514;2023-08-31T06:50:16;1999.90;;;999.90;;
11767;SDS011;5941;57.652;12.514;2023-08-31T06:52:42;1999.90;;;999.90;;
11767;SDS011;5941;57.652;12.514;2023-08-31T06:55:11;1999.90;;;999.90;;
11767;SDS011;5941;57.652;12.514;2023-08-31T06:57:37;1999.90;;;999.90;;
11767;SDS011;5941;57.652;12.514;2023-08-31T07:00:03;1999.90;;;999.90;;
11767;SDS011;5941;57.652;12.514;2023-08-31T07:02:31;1999.90;;;999.90;;
11767;SDS011;5941;57.652;12.514;2023-08-31T07:04:57;1999.90;;;999.90;;
11767;SDS011;5941;57.652;12.514;2023-08-31T07:07:23;1999.90;;;999.90;;
11767;SDS011;5941;57.652;12.514;2023-08-31T07:09:49;1999.90;;;999.90;;
11767;SDS011;5941;57.652;12.514;2023-08-31T07:12:15;1999.90;;;999.90;;
11767;SDS011;5941;57.652;12.514;2023-08-31T07:14:41;1999.90;;;999.90;;
11767;SDS011;5941;57.652;12.514;2023-08-31T07:17:07;1999.90;;;999.90;;
11767;SDS011;5941;57.652;12.514;2023-08-31T07:19:36;1999.90;;;999.90;;
11767;SDS011;5941;57.652;12.514;2023-08-31T07:22:02;1999.90;;;999.90;;
11767;SDS011;5941;57.652;12.514;2023-08-31T07:24:29;1999.90;;;999.90;;
11767;SDS011;5941;57.652;12.514;2023-08-31T07:26:55;1999.90;;;999.90;;
11767;SDS011;5941;57.652;12.514;2023-08-31T07:29:21;1999.90;;;999.90;;
11767;SDS011;5941;57.652;12.514;2023-08-31T07:31:47;1999.90;;;999.90;;
11767;SDS011;5941;57.652;12.514;2023-08-31T07:34:13;1999.90;;;999.90;;
11767;SDS011;5941;57.652;12.514;2023-08-31T07:36:39;1999.90;;;999.90;;
11767;SDS011;5941;57.652;12.514;2023-08-31T07:39:05;1999.90;;;999.90;;
11767;SDS011;5941;57.652;12.514;2023-08-31T07:41:32;1999.90;;;999.90;;
11767;SDS011;5941;57.652;12.514;2023-08-31T07:43:58;1999.90;;;999.90;;
11767;SDS011;5941;57.652;12.514;2023-08-31T07:46:24;1999.90;;;999.90;;
11767;SDS011;5941;57.652;12.514;2023-08-31T07:48:50;1999.90;;;999.90;;
11767;SDS011;5941;57.652;12.514;2023-08-31T07:51:16;1999.90;;;999.90;;
11767;SDS011;5941;57.652;12.514;2023-08-31T07:53:42;1999.90;;;999.90;;
11767;SDS011;5941;57.652;12.514;2023-08-31T07:56:08;1999.90;;;999.90;;
11767;SDS011;5941;57.652;12.514;2023-08-31T07:58:34;1999.90;;;999.90;;
11767;SDS011;5941;57.652;12.514;2023-08-31T08:01:00;1999.90;;;999.90;;
11767;SDS011;5941;57.652;12.514;2023-08-31T08:03:26;1999.90;;;999.90;;
11767;SDS011;5941;57.652;12.514;2023-08-31T08:05:52;1999.90;;;999.90;;
11767;SDS011;5941;57.652;12.514;2023-08-31T08:08:18;1999.90;;;999.90;;
11767;SDS011;5941;57.652;12.514;2023-08-31T08:10:44;1999.90;;;999.90;;
11767;SDS011;5941;57.652;12.514;2023-08-31T08:13:11;1999.90;;;999.90;;
11767;SDS011;5941;57.652;12.514;2023-08-31T08:15:37;1999.90;;;999.90;;
11767;SDS011;5941;57.652;12.514;2023-08-31T08:18:03;1999.90;;;999.90;;
11767;SDS011;5941;57.652;12.514;2023-08-31T08:20:29;1999.90;;;999.90;;
11767;SDS011;5941;57.652;12.514;2023-08-31T08:22:57;1999.90;;;999.90;;
11767;SDS011;5941;57.652;12.514;2023-08-31T08:25:23;1999.90;;;999.90;;
11767;SDS011;5941;57.652;12.514;2023-08-31T08:27:49;1999.90;;;999.90;;
11767;SDS011;5941;57.652;12.514;2023-08-31T08:30:15;1999.90;;;999.90;;
11767;SDS011;5941;57.652;12.514;2023-08-31T08:32:42;1999.90;;;999.90;;
11767;SDS011;5941;57.652;12.514;2023-08-31T08:35:08;1999.90;;;999.90;;
11767;SDS011;5941;57.652;12.514;2023-08-31T08:37:34;1999.90;;;999.90;;
11767;SDS011;5941;57.652;12.514;2023-08-31T08:40:01;1999.90;;;999.90;;
11767;SDS011;5941;57.652;12.514;2023-08-31T08:42:28;1999.90;;;999.90;;
11767;SDS011;5941;57.652;12.514;2023-08-31T08:44:56;1999.90;;;999.90;;
11767;SDS011;5941;57.652;12.514;2023-08-31T08:47:22;1999.90;;;999.90;;
11767;SDS011;5941;57.652;12.514;2023-08-31T08:49:48;1999.90;;;999.90;;
11767;SDS011;5941;57.652;12.514;2023-08-31T08:52:15;1999.90;;;999.90;;
11767;SDS011;5941;57.652;12.514;2023-08-31T08:54:41;1999.90;;;999.90;;
11767;SDS011;5941;57.652;12.514;2023-08-31T08:57:07;1999.90;;;999.90;;
11767;SDS011;5941;57.652;12.514;2023-08-31T08:59:33;1999.90;;;999.90;;
11767;SDS011;5941;57.652;12.514;2023-08-31T09:01:59;1999.90;;;999.90;;
11767;SDS011;5941;57.652;12.514;2023-08-31T09:04:25;1999.90;;;999.90;;
11767;SDS011;5941;57.652;12.514;2023-08-31T09:06:51;739.17;;;676.33;;
11767;SDS011;5941;57.652;12.514;2023-08-31T09:09:17;826.55;;;778.75;;
11767;SDS011;5941;57.652;12.514;2023-08-31T09:11:45;953.50;;;880.88;;
11767;SDS011;5941;57.652;12.514;2023-08-31T09:14:14;1181.60;;;886.53;;
11767;SDS011;5941;57.652;12.514;2023-08-31T09:16:42;1999.90;;;999.90;;
11767;SDS011;5941;57.652;12.514;2023-08-31T09:21:44;1999.90;;;999.90;;
11767;SDS011;5941;57.652;12.514;2023-08-31T09:24:11;934.47;;;848.25;;
11767;SDS011;5941;57.652;12.514;2023-08-31T09:26:38;953.00;;;888.30;;
11767;SDS011;5941;57.652;12.514;2023-08-31T09:29:05;1043.97;;;957.70;;
11767;SDS011;5941;57.652;12.514;2023-08-31T09:31:31;982.72;;;910.42;;
11767;SDS011;5941;57.652;12.514;2023-08-31T09:33:57;856.22;;;804.80;;
11767;SDS011;5941;57.652;12.514;2023-08-31T09:36:23;881.85;;;826.05;;
11767;SDS011;5941;57.652;12.514;2023-08-31T09:38:49;1758.25;;;986.60;;
11767;SDS011;5941;57.652;12.514;2023-08-31T09:41:15;915.00;;;854.22;;
11767;SDS011;5941;57.652;12.514;2023-08-31T09:43:42;1999.90;;;999.90;;
11767;SDS011;5941;57.652;12.514;2023-08-31T09:46:08;1999.90;;;999.90;;
11767;SDS011;5941;57.652;12.514;2023-08-31T09:48:35;1005.60;;;922.65;;
11767;SDS011;5941;57.652;12.514;2023-08-31T09:51:03;858.45;;;807.13;;
11767;SDS011;5941;57.652;12.514;2023-08-31T09:53:30;906.92;;;847.25;;
11767;SDS011;5941;57.652;12.514;2023-08-31T09:55:56;865.10;;;812.55;;
11767;SDS011;5941;57.652;12.514;2023-08-31T09:58:23;860.65;;;808.75;;
11767;SDS011;5941;57.652;12.514;2023-08-31T10:00:49;869.47;;;816.15;;
11767;SDS011;5941;57.652;12.514;2023-08-31T10:03:16;870.28;;;817.30;;
11767;SDS011;5941;57.652;12.514;2023-08-31T10:05:42;903.88;;;846.15;;
11767;SDS011;5941;57.652;12.514;2023-08-31T10:08:09;890.38;;;834.45;;
11767;SDS011;5941;57.652;12.514;2023-08-31T10:10:35;887.70;;;831.35;;
11767;SDS011;5941;57.652;12.514;2023-08-31T10:13:03;868.35;;;816.30;;
11767;SDS011;5941;57.652;12.514;2023-08-31T10:15:31;859.90;;;808.33;;
11767;SDS011;5941;57.652;12.514;2023-08-31T10:18:00;867.60;;;814.53;;
11767;SDS011;5941;57.652;12.514;2023-08-31T10:20:27;884.92;;;830.47;;
11767;SDS011;5941;57.652;12.514;2023-08-31T10:22:56;844.38;;;794.95;;
11767;SDS011;5941;57.652;12.514;2023-08-31T10:25:22;871.08;;;817.33;;
11767;SDS011;5941;57.652;12.514;2023-08-31T10:27:48;833.00;;;784.88;;
11767;SDS011;5941;57.652;12.514;2023-08-31T10:36:08;784.55;;;741.33;;
11767;SDS011;5941;57.652;12.514;2023-08-31T10:38:26;755.03;;;715.08;;
11767;SDS011;5941;57.652;12.514;2023-08-31T10:41:01;701.35;;;666.05;;
11767;SDS011;5941;57.652;12.514;2023-08-31T10:43:42;780.10;;;737.38;;
11767;SDS011;5941;57.652;12.514;2023-08-31T10:46:25;768.35;;;726.63;;
11767;SDS011;5941;57.652;12.514;2023-08-31T10:51:23;729.75;;;691.50;;
11767;SDS011;5941;57.652;12.514;2023-08-31T10:53:50;694.55;;;660.33;;
11767;SDS011;5941;57.652;12.514;2023-08-31T10:56:16;799.55;;;754.38;;
11767;SDS011;5941;57.652;12.514;2023-08-31T10:58:43;737.85;;;698.95;;
11767;SDS011;5941;57.652;12.514;2023-08-31T11:01:09;669.22;;;636.60;;
11767;SDS011;5941;57.652;12.514;2023-08-31T11:06:20;633.83;;;604.50;;
11767;SDS011;5941;57.652;12.514;2023-08-31T11:08:50;633.25;;;603.60;;
11767;SDS011;5941;57.652;12.514;2023-08-31T11:11:19;927.88;;;864.67;;
11767;SDS011;5941;57.652;12.514;2023-08-31T11:13:45;906.35;;;848.78;;
11767;SDS011;5941;57.652;12.514;2023-08-31T11:16:11;955.38;;;889.63;;
11767;SDS011;5941;57.652;12.514;2023-08-31T11:18:37;1751.10;;;981.50;;
11767;SDS011;5941;57.652;12.514;2023-08-31T11:21:03;984.67;;;914.53;;
11767;SDS011;5941;57.652;12.514;2023-08-31T11:23:30;961.72;;;895.85;;
11767;SDS011;5941;57.652;12.514;2023-08-31T11:25:56;928.83;;;867.30;;
11767;SDS011;5941;57.652;12.514;2023-08-31T11:28:22;977.67;;;908.95;;
11767;SDS011;5941;57.652;12.514;2023-08-31T11:30:48;998.05;;;925.13;;
11767;SDS011;5941;57.652;12.514;2023-08-31T11:33:14;1999.90;;;999.90;;
11767;SDS011;5941;57.652;12.514;2023-08-31T11:35:41;1700.35;;;932.65;;
11767;SDS011;5941;57.652;12.514;2023-08-31T11:38:09;937.63;;;862.65;;
11767;SDS011;5941;57.652;12.514;2023-08-31T11:40:35;943.45;;;868.65;;
11767;SDS011;5941;57.652;12.514;2023-08-31T11:43:02;954.28;;;882.42;;
11767;SDS011;5941;57.652;12.514;2023-08-31T11:45:29;929.85;;;867.22;;
11767;SDS011;5941;57.652;12.514;2023-08-31T11:47:56;924.58;;;863.88;;
11767;SDS011;5941;57.652;12.514;2023-08-31T11:50:22;895.42;;;839.80;;
11767;SDS011;5941;57.652;12.514;2023-08-31T11:52:49;902.28;;;844.95;;
11767;SDS011;5941;57.652;12.514;2023-08-31T11:55:16;915.45;;;856.35;;
11767;SDS011;5941;57.652;12.514;2023-08-31T11:57:49;905.65;;;847.75;;
11767;SDS011;5941;57.652;12.514;2023-08-31T12:00:16;894.15;;;837.10;;
11767;SDS011;5941;57.652;12.514;2023-08-31T12:02:42;906.92;;;849.13;;
11767;SDS011;5941;57.652;12.514;2023-08-31T12:05:11;919.83;;;859.13;;
11767;SDS011;5941;57.652;12.514;2023-08-31T12:07:40;930.45;;;870.13;;
11767;SDS011;5941;57.652;12.514;2023-08-31T12:10:07;971.50;;;899.88;;
11767;SDS011;5941;57.652;12.514;2023-08-31T12:12:33;926.80;;;865.65;;
11767;SDS011;5941;57.652;12.514;2023-08-31T12:15:01;1728.80;;;960.50;;
11767;SDS011;5941;57.652;12.514;2023-08-31T12:17:28;902.13;;;844.83;;
11767;SDS011;5941;57.652;12.514;2023-08-31T12:20:04;894.58;;;839.30;;
11767;SDS011;5941;57.652;12.514;2023-08-31T12:22:30;771.92;;;730.20;;
11767;SDS011;5941;57.652;12.514;2023-08-31T12:24:56;867.25;;;813.22;;
11767;SDS011;5941;57.652;12.514;2023-08-31T12:27:22;892.97;;;836.95;;
11767;SDS011;5941;57.652;12.514;2023-08-31T12:29:48;874.72;;;820.45;;
11767;SDS011;5941;57.652;12.514;2023-08-31T12:32:15;879.30;;;824.72;;
11767;SDS011;5941;57.652;12.514;2023-08-31T12:34:43;869.38;;;816.60;;
11767;SDS011;5941;57.652;12.514;2023-08-31T12:37:09;896.08;;;839.88;;
11767;SDS011;5941;57.652;12.514;2023-08-31T12:39:35;903.92;;;847.45;;
11767;SDS011;5941;57.652;12.514;2023-08-31T12:42:02;901.20;;;844.40;;
11767;SDS011;5941;57.652;12.514;2023-08-31T12:44:28;897.75;;;841.45;;
11767;SDS011;5941;57.652;12.514;2023-08-31T12:46:54;888.30;;;832.50;;
11767;SDS011;5941;57.652;12.514;2023-08-31T12:49:20;894.70;;;839.15;;
11767;SDS011;5941;57.652;12.514;2023-08-31T12:51:46;892.95;;;837.22;;
11767;SDS011;5941;57.652;12.514;2023-08-31T12:54:13;1999.90;;;999.90;;
11767;SDS011;5941;57.652;12.514;2023-08-31T12:56:40;1999.90;;;999.90;;
11767;SDS011;5941;57.652;12.514;2023-08-31T12:59:06;470.60;;;425.02;;
11767;SDS011;5941;57.652;12.514;2023-08-31T13:01:32;1999.90;;;999.90;;
11767;SDS011;5941;57.652;12.514;2023-08-31T13:03:58;1999.90;;;999.90;;
11767;SDS011;5941;57.652;12.514;2023-08-31T13:06:25;1999.90;;;999.90;;
11767;SDS011;5941;57.652;12.514;2023-08-31T13:08:51;1999.90;;;999.90;;
11767;SDS011;5941;57.652;12.514;2023-08-31T13:11:17;1999.90;;;999.90;;
11767;SDS011;5941;57.652;12.514;2023-08-31T13:13:48;1999.90;;;999.90;;
11767;SDS011;5941;57.652;12.514;2023-08-31T13:16:15;1999.90;;;999.90;;
11767;SDS011;5941;57.652;12.514;2023-08-31T13:18:42;1999.90;;;999.90;;
11767;SDS011;5941;57.652;12.514;2023-08-31T13:21:08;1999.90;;;999.90;;
11767;SDS011;5941;57.652;12.514;2023-08-31T13:23:33;1999.90;;;999.90;;
11767;SDS011;5941;57.652;12.514;2023-08-31T13:25:59;1999.90;;;999.90;;
11767;SDS011;5941;57.652;12.514;2023-08-31T13:28:25;1999.90;;;999.90;;
11767;SDS011;5941;57.652;12.514;2023-08-31T13:30:57;1999.90;;;999.90;;
11767;SDS011;5941;57.652;12.514;2023-08-31T13:33:25;1999.90;;;999.90;;
11767;SDS011;5941;57.652;12.514;2023-08-31T13:35:53;1999.90;;;999.90;;
11767;SDS011;5941;57.652;12.514;2023-08-31T13:38:19;1999.90;;;999.90;;
11767;SDS011;5941;57.652;12.514;2023-08-31T13:40:47;1999.90;;;999.90;;
11767;SDS011;5941;57.652;12.514;2023-08-31T13:43:13;1999.90;;;999.90;;
11767;SDS011;5941;57.652;12.514;2023-08-31T13:45:39;1999.90;;;999.90;;
11767;SDS011;5941;57.652;12.514;2023-08-31T13:48:05;1999.90;;;999.90;;
11767;SDS011;5941;57.652;12.514;2023-08-31T13:50:32;1999.90;;;999.90;;
11767;SDS011;5941;57.652;12.514;2023-08-31T13:52:58;1999.90;;;999.90;;
11767;SDS011;5941;57.652;12.514;2023-08-31T13:55:24;1999.90;;;999.90;;
11767;SDS011;5941;57.652;12.514;2023-08-31T13:57:51;1999.90;;;999.90;;
11767;SDS011;5941;57.652;12.514;2023-08-31T14:00:17;1999.90;;;999.90;;
11767;SDS011;5941;57.652;12.514;2023-08-31T14:02:43;1999.90;;;999.90;;
11767;SDS011;5941;57.652;12.514;2023-08-31T14:05:09;1999.90;;;999.90;;
11767;SDS011;5941;57.652;12.514;2023-08-31T14:07:36;1999.90;;;999.90;;